NACIONALNO OTVORENO PRVENSTVO HRVATSKE U KARTINGU
1. NAGRADA MOTULA '10
Čakovec-Belica, 16.-17.10.2010.

KLASA 0
Poz. S.b. Vozač Klub Nac. Krug Vrijeme Zaostatak Bod.
1. 7 Tin Vorkapić KK Koprivnica HR 5 6:22,672 0:00,000 -
2. 12 Matea Turk AK Info Kart HR 5 6:23,237 0:00,565 -
3. 4 Dorian Vargović Cobra Virovitica HR 5 6:23,690 0:01,018 -
4. 11 Erik Trstenjak AKK Podravina Koprivnica HR 5 6:28,135 0:05,463 -
5. 10 Luka Tomašić KK Koprivnica HR 5 6:31,476 0:08,804 -
6. 9 Jan Tisaj KK Koprivnica HR 5 6:47,479 0:24,807 -
7. 8 Filip Vuković Cobra Virovitica HR 5 6:52,839 0:30,167 -
 
KLASA I - 1. UTRKA
Poz. S.b. Vozač Klub Nac. Krug Vrijeme Zaostatak Bod.
1. 111 Jan Pokos AK Speedy HR 10 9:43,022 0:00,000 20
2. 112 Matija Kovačić KK 1 Zagreb HR 10 9:47,507 0:04,485 15
3. 102 Muhammad Pličanić AK Info Kart HR 10 10:04,195 0:21,173 12
 
KLASA I - 2. UTRKA
Poz. S.b. Vozač Klub Nac. Krug Vrijeme Zaostatak Bod.
1. 111 Jan Pokos AK Speedy HR 10 9:33,762 0:00,000 20
2. 112 Matija Kovačić KK 1 Zagreb HR 10 9:45,041 0:11,279 15
3. 102 Muhammad Pličanić AK Info Kart HR 10 9:49,418 0:15,656 12
 
KLASA II - 1. UTRKA
Poz. S.b. Vozač Klub Nac. Krug Vrijeme Zaostatak Bod.
1. 206 Damian Sekulić Cobra Virovitica HR 10 9:08,570 0:00,000 20
2. 201 Juraj Kovačić KK 1 Zagreb HR 10 9:13,266 0:04,696 15
3. 207 Fran Tisaj KK Koprivnica HR 10 9:41,231 0:32,661 12
- 210 Luka Mavrin KK 1 Zagreb HR 10 isključen -
 
KLASA II - 2. UTRKA
Poz. S.b. Vozač Klub Nac. Krug Vrijeme Zaostatak Bod.
1. 206 Damian Sekulić Cobra Virovitica HR 10 9:12,352 0:00,000 20
2. 207 Fran Tisaj KK Koprivnica HR 10 9:32,158 0:19,806 15
- 210 Luka Mavrin KK 1 Zagreb HR 10 isključen -
- 201 Juraj Kovačić KK 1 Zagreb HR 7 isključen -
 
KLASA V - 1. UTRKA
Poz. S.b. Vozač Klub Nac. Krug Vrijeme Zaostatak Bod.
1. 515 Nikola Belohradski AKK Zanatlija HR 8 6:18,917 0:00,000 20
2. 502 Sven Gorup AKK Zanatlija HR 8 6:24,403 0:05,486 15
3. 510 Tomislav Pavlić KK 1 Zagreb HR 8 6:27,579 0:08,662 12
 
KLASA V - 2. UTRKA
Poz. S.b. Vozač Klub Nac. Krug Vrijeme Zaostatak Bod.
1. 515 Nikola Belohradski AKK Zanatlija HR 8 8:39,869 0:00,000 20
2. 502 Sven Gorup AKK Zanatlija HR 8 8:48,635 0:08,766 15
3. 510 Tomislav Pavlić KK 1 Zagreb HR 8 8:56,984 0:17,115 12
 
KLASA VII - 1. UTRKA
Poz. S.b. Vozač Klub Nac. Krug Vrijeme Zaostatak Bod.
1. 720 Nedjeljko Vucelić KK 1 Zagreb HR 15 11:38,373 0:00,000 20
2. 703 Žarko Martinjak KK Koprivnica HR 15 11:56,670 0:18,297 15
3. 707 Renato Dujmović AMK Buzet HR 15 12:02,070 0:23,697 12
4. 719 Tomislav Lovrenc AKK Podravina Koprivnica HR 14 11:42,841 1 krug 10
5. 708 Siniša Mišić Cobra Virovitica HR 14 12:03,219 1 krug 8
6. 705 Zlatko Banić SAK Split HR 13 11:54,289 2 kruga 6
 
KLASA VII - 2. UTRKA
Poz. S.b. Vozač Klub Nac. Krug Vrijeme Zaostatak Bod.
1. 720 Nedjeljko Vucelić KK 1 Zagreb HR 15 12:44,555 0:00,000 20
2. 703 Žarko Martinjak KK Koprivnica HR 15 13:04,779 0:20,224 15
3. 707 Renato Dujmović AMK Buzet HR 15 13:07,598 0:23,043 12
4. 719 Tomislav Lovrenc AKK Podravina Koprivnica HR 14 12:46,511 1 krug 10
5. 708 Siniša Mišić Cobra Virovitica HR 14 13:13,047 1 krug 8
6. 705 Zlatko Banić SAK Split HR 13 13:04,837 2 kruga 6
 
KLASA VIII - 1. UTRKA
Poz. S.b. Vozač Klub Nac. Krug Vrijeme Zaostatak Bod.
1. 801 Samir Smailagić AK Info Kart HR 8 7:10,623 0:00,000 20
2. 809 Ivan Žovan KK 1 Zagreb HR 8 7:13,104 0:02,481 15
3. 808 Krunoslav Žovan KK 1 Zagreb HR 8 7:13,999 0:03,376 12
4. 804 Tomislav Lovrenc AKK Podravina Koprivnica HR 8 7:24,034 0:13,411 10
5. 810 Nikola Carević KK 1 Zagreb HR 8 7:28,821 0:18,198 8
 
KLASA VIII - 2. UTRKA
Poz. S.b. Vozač Klub Nac. Krug Vrijeme Zaostatak Bod.
1. 804 Tomislav Lovrenc AKK Podravina Koprivnica HR 8 8:38,233 0:00,000 20
2. 801 Samir Smailagić AK Info Kart HR 7 8:55,551 1 krug 15
3. 808 Krunoslav Žovan KK 1 Zagreb HR 7 9:02,116 1 krug 12
4. 810 Nikola Carević KK 1 Zagreb HR 7 9:44,729 1 krug 10
- 809 Ivan Žovan KK 1 Zagreb HR 2 odustao -
 
PRVENSTVO HRVATSKE